This is the latest recevied weather packets stored in our database for station/object E24YPM-1. If no packets are shown the sender has not sent any weather packets the latest 10 day(s).
| Time | Temp. | Humidity | Pressure | Rain* | Wind** | Luminosity | Snow |
|---|---|---|---|---|---|---|---|
| 1777648937 | 32.22° C | 32% | 1004 hPa | - | - | 0 W/m² | - |
| 1777647073 | 32.78° C | 34% | 1004 hPa | - | - | 0 W/m² | - |
| 1777646163 | 32.78° C | 35% | 1004 hPa | - | - | 0 W/m² | - |
| 1777645246 | 33.33° C | 38% | 1003 hPa | - | - | 0 W/m² | - |
| 1777643424 | 35.56° C | 49% | 1003 hPa | - | - | 0 W/m² | - |
| 1777641610 | 35.56° C | 49% | 1002 hPa | - | - | 0 W/m² | - |
| 1777640690 | 35.56° C | 48% | 1002 hPa | - | - | 0 W/m² | - |
| 1777639771 | 35.56° C | 49% | 1002 hPa | - | - | 0 W/m² | - |
| 1777638857 | 35.56° C | 49% | 1002 hPa | - | - | 0 W/m² | - |
| 1777638135 | 35.56° C | 48% | 1002 hPa | - | - | 0 W/m² | - |
| 1777637052 | 36.11° C | 46% | 1002 hPa | - | - | 0 W/m² | - |
| 1777636157 | 37.22° C | 44% | 1001 hPa | - | - | 0 W/m² | - |
| 1777634312 | 36.67° C | 45% | 1001 hPa | - | - | 0 W/m² | - |
| 1777632481 | 36.11° C | 46% | 1001 hPa | - | - | 0 W/m² | - |
| 1777631570 | 36.11° C | 46% | 1000 hPa | - | - | 0 W/m² | - |
| 1777630653 | 36.11° C | 45% | 1000 hPa | - | - | 0 W/m² | - |
| 1777629736 | 36.11° C | 44% | 1000 hPa | - | - | 0 W/m² | - |
| 1777626995 | 36.11° C | 44% | 1001 hPa | - | - | 0 W/m² | - |
| 1777626098 | 36.67° C | 43% | 1001 hPa | - | - | 0 W/m² | - |
| 1777625185 | 36.11° C | 44% | 1001 hPa | - | - | 0 W/m² | - |
| 1777623351 | 36.11° C | 45% | 1002 hPa | - | - | 0 W/m² | - |
| 1777622388 | 36.11° C | 44% | 1002 hPa | - | - | 0 W/m² | - |
| 1777621473 | 35.56° C | 45% | 1002 hPa | - | - | 0 W/m² | - |
| 1777620588 | 35.56° C | 45% | 1003 hPa | - | - | 0 W/m² | - |
| 1777619639 | 35.56° C | 45% | 1003 hPa | - | - | 0 W/m² | - |
* Rain since midnight (hover to see other rain measurements)
** Current wind speed in m/s (hover to see current wind gust speed)